Time;durP1;ratioP1;P1;durP2;ratioP2;P2;SDS_P1;SDS_P2;PMS_P1;PMS_P2;Temp;Humidity;BMP_temperature;BMP_pressure;BME280_temperature;BME280_humidity;BME280_pressure;Samples;Min_cycle;Max_cycle;Signal;HPM_P1;HPM_P2
2021/12/12 00:00:45;;;;;;;27.38;6.97;;;;;;;4.33;100.00;102080.75;5220783;28;20108;-70
2021/12/12 00:03:31;;;;;;;25.25;6.03;;;;;;;4.35;100.00;102070.03;5209249;28;20013;-69
2021/12/12 00:06:13;;;;;;;25.80;6.78;;;;;;;4.31;100.00;102064.03;5219911;28;20033;-69
2021/12/12 00:08:47;;;;;;;35.35;8.35;;;;;;;4.31;100.00;102064.03;5220238;28;20021;-69
2021/12/12 00:11:20;;;;;;;30.13;7.45;;;;;;;4.25;100.00;102059.13;5220224;28;20025;-69
2021/12/12 00:13:55;;;;;;;28.65;7.88;;;;;;;4.25;100.00;102064.44;5220084;28;20480;-69
2021/12/12 00:16:27;;;;;;;34.00;7.82;;;;;;;4.24;100.00;102062.72;5222354;28;20095;-69
2021/12/12 00:18:58;;;;;;;35.35;8.15;;;;;;;4.27;100.00;102059.03;5230950;28;20115;-69
2021/12/12 00:21:32;;;;;;;38.40;9.63;;;;;;;4.24;100.00;102056.56;5223350;28;20036;-69
2021/12/12 00:24:06;;;;;;;29.88;7.80;;;;;;;4.24;100.00;102059.22;5223803;28;20360;-69
2021/12/12 00:26:37;;;;;;;25.88;8.25;;;;;;;4.23;100.00;102066.34;5223500;28;20156;-69
2021/12/12 00:29:13;;;;;;;24.40;8.68;;;;;;;4.28;100.00;102058.09;5223909;28;20086;-69
2021/12/12 00:31:46;;;;;;;31.10;7.90;;;;;;;4.26;100.00;102059.97;5223325;28;20017;-69
2021/12/12 00:34:17;;;;;;;25.08;7.57;;;;;;;4.26;100.00;102047.53;5223285;28;20036;-69
2021/12/12 00:36:48;;;;;;;38.33;10.07;;;;;;;4.29;100.00;102054.47;5223647;28;20389;-69
2021/12/12 00:39:24;;;;;;;30.77;8.02;;;;;;;4.30;100.00;102054.38;5223433;28;20025;-69
2021/12/12 00:41:59;;;;;;;27.48;8.88;;;;;;;4.32;100.00;102048.97;5223256;28;20025;-69
2021/12/12 00:44:31;;;;;;;39.70;9.15;;;;;;;4.35;100.00;102051.44;5222716;28;20021;-69
2021/12/12 00:47:05;;;;;;;35.03;9.82;;;;;;;4.35;100.00;102054.94;5223573;28;20021;-69
2021/12/12 00:49:39;;;;;;;29.75;8.15;;;;;;;4.44;100.00;102042.03;5223176;28;20107;-69
2021/12/12 00:52:14;;;;;;;32.60;8.27;;;;;;;4.41;100.00;102043.91;5223297;28;20481;-69
2021/12/12 00:54:45;;;;;;;;;;;;;;;4.43;100.00;102040.31;5223085;28;20394;-69
2021/12/12 00:57:19;;;;;;;37.42;9.30;;;;;;;4.48;100.00;102040.88;5222942;28;19908;-68
2021/12/12 00:59:49;;;;;;;26.02;8.27;;;;;;;4.52;100.00;102035.28;5222692;28;20021;-69
2021/12/12 01:02:25;;;;;;;35.47;7.88;;;;;;;4.49;100.00;102038.13;5222788;28;20063;-69
2021/12/12 01:04:58;;;;;;;34.13;8.25;;;;;;;4.50;100.00;102036.31;5213561;28;20470;-69
2021/12/12 01:07:33;;;;;;;33.85;7.55;;;;;;;4.50;100.00;102029.19;5220341;28;20078;-69
2021/12/12 01:10:21;;;;;;;42.20;10.27;;;;;;;4.53;100.00;102044.09;5222973;28;20029;-69
2021/12/12 01:12:54;;;;;;;24.45;8.13;;;;;;;4.51;100.00;102043.34;5222590;28;20612;-70
2021/12/12 01:15:35;;;;;;;23.27;6.70;;;;;;;4.54;100.00;102048.47;5222622;28;20544;-70
2021/12/12 01:18:12;;;;;;;31.80;8.27;;;;;;;4.49;100.00;102046.09;5230192;28;20393;-69
2021/12/12 01:20:51;;;;;;;30.67;8.98;;;;;;;4.48;100.00;102032.91;5209627;28;20033;-70
2021/12/12 01:23:36;;;;;;;39.15;8.82;;;;;;;4.49;100.00;102040.78;5222809;28;20043;-70
2021/12/12 01:26:08;;;;;;;23.45;6.93;;;;;;;4.49;100.00;102029.31;5222000;28;20020;-70
2021/12/12 01:28:42;;;;;;;36.47;9.75;;;;;;;4.48;100.00;102036.41;5222352;28;20025;-70
2021/12/12 01:31:23;;;;;;;26.63;8.55;;;;;;;4.49;100.00;102038.13;5222309;28;20537;-70
2021/12/12 01:34:09;;;;;;;32.92;8.43;;;;;;;4.49;100.00;102030.16;5222693;28;20227;-70
2021/12/12 01:39:24;;;;;;;28.35;7.60;;;;;;;4.50;100.00;102039.81;5223043;28;19962;-70
2021/12/12 01:42:06;;;;;;;39.35;8.80;;;;;;;4.51;100.00;102038.88;5222990;28;20052;-70
2021/12/12 01:44:40;;;;;;;29.98;7.95;;;;;;;4.50;100.00;102039.81;5221090;28;20024;-70
2021/12/12 01:47:14;;;;;;;31.80;7.63;;;;;;;4.49;100.00;102043.44;5222485;28;20104;-70
2021/12/12 01:49:48;;;;;;;21.92;6.93;;;;;;;4.53;100.00;102044.97;5223044;28;20063;-70
2021/12/12 01:52:22;;;;;;;32.80;7.30;;;;;;;4.55;100.00;102039.53;5222499;28;20090;-70
2021/12/12 01:54:59;;;;;;;25.90;7.75;;;;;;;4.54;100.00;102033.38;5222844;28;20032;-70
2021/12/12 01:57:35;;;;;;;26.85;6.63;;;;;;;4.56;100.00;102035.91;5222422;28;20024;-69
2021/12/12 02:00:15;;;;;;;27.50;7.80;;;;;;;4.56;100.00;102036.75;5221493;28;20493;-70
2021/12/12 02:02:46;;;;;;;32.00;7.55;;;;;;;4.55;100.00;102029.75;5216747;28;20025;-70
2021/12/12 02:05:19;;;;;;;26.45;6.78;;;;;;;4.55;100.00;102029.75;5215683;28;20021;-70
2021/12/12 02:07:57;;;;;;;30.98;8.07;;;;;;;4.59;100.00;102017.13;5222210;28;20385;-70
2021/12/12 02:10:35;;;;;;;39.90;7.47;;;;;;;4.58;100.00;102023.41;5221252;28;20017;-70
2021/12/12 02:13:27;;;;;;;24.42;6.20;;;;;;;4.58;100.00;102020.75;5221362;28;20033;-70
2021/12/12 02:16:00;;;;;;;22.15;6.38;;;;;;;4.57;100.00;102019.88;5220545;28;20055;-70
2021/12/12 02:18:36;;;;;;;30.80;6.93;;;;;;;4.58;100.00;102023.41;5229236;28;20025;-70
2021/12/12 02:21:24;;;;;;;28.25;5.97;;;;;;;4.59;100.00;102031.25;5222003;28;20059;-70
2021/12/12 02:24:34;;;;;;;28.73;7.35;;;;;;;4.60;100.00;102018.81;5222022;28;20029;-70
2021/12/12 02:35:42;;;;;;;34.88;6.40;;;;;;;4.71;100.00;102008.34;5209593;28;20047;-70
2021/12/12 02:38:22;;;;;;;27.13;6.15;;;;;;;4.72;100.00;102009.19;5221197;28;20115;-70
2021/12/12 02:41:07;;;;;;;42.42;5.93;;;;;;;4.72;100.00;102006.53;5221795;28;20070;-70
2021/12/12 02:43:42;;;;;;;32.50;5.82;;;;;;;4.74;100.00;102002.00;5222333;28;20028;-70
2021/12/12 02:46:17;;;;;;;29.30;5.88;;;;;;;4.74;100.00;102002.84;5221386;28;20099;-70
2021/12/12 02:48:52;;;;;;;33.15;5.88;;;;;;;4.75;100.00;101996.56;5222133;28;20021;-70
2021/12/12 02:51:22;;;;;;;29.20;5.87;;;;;;;4.78;100.00;102003.50;5221276;28;20021;-70
2021/12/12 02:53:55;;;;;;;34.22;5.70;;;;;;;4.81;100.00;102004.13;5221540;28;20297;-69
2021/12/12 02:56:33;;;;;;;19.85;5.20;;;;;;;4.84;100.00;102008.41;5219850;28;20452;-70
2021/12/12 02:59:07;;;;;;;25.65;5.53;;;;;;;4.87;100.00;102002.88;5221343;28;20504;-70
2021/12/12 03:01:43;;;;;;;19.45;4.97;;;;;;;4.89;100.00;102007.16;5222007;28;20022;-70
2021/12/12 03:04:20;;;;;;;25.17;5.95;;;;;;;4.91;100.00;101999.91;5220924;28;20021;-70
2021/12/12 03:06:59;;;;;;;30.20;5.60;;;;;;;4.93;100.00;102002.50;5221358;28;20029;-70
2021/12/12 03:09:36;;;;;;;35.22;6.97;;;;;;;4.94;100.00;102010.34;5221816;28;20017;-69
2021/12/12 03:12:11;;;;;;;32.67;5.72;;;;;;;4.93;100.00;102021.09;5221393;28;20392;-70
2021/12/12 03:14:43;;;;;;;27.77;6.68;;;;;;;4.92;100.00;102014.09;5219592;28;20029;-70
2021/12/12 03:17:19;;;;;;;22.20;5.97;;;;;;;4.90;100.00;102016.81;5221373;28;20033;-70
2021/12/12 03:19:55;;;;;;;26.95;6.80;;;;;;;4.92;100.00;102014.94;5220899;28;20032;-70
2021/12/12 03:22:26;;;;;;;26.80;5.88;;;;;;;4.94;100.00;102021.00;5221582;28;20043;-70
2021/12/12 03:24:57;;;;;;;25.20;6.88;;;;;;;4.92;100.00;102017.59;5219449;28;20545;-70
2021/12/12 03:27:28;;;;;;;26.17;6.43;;;;;;;4.91;100.00;102026.50;5221333;28;20112;-70
2021/12/12 03:29:59;;;;;;;22.83;6.35;;;;;;;4.92;100.00;102017.59;5221331;28;20115;-70
2021/12/12 03:32:29;;;;;;;27.20;6.75;;;;;;;4.92;100.00;102030.03;5220078;28;20473;-70
2021/12/12 03:35:01;;;;;;;23.90;7.93;;;;;;;4.92;100.00;102017.59;5220870;28;20092;-70
2021/12/12 03:37:33;;;;;;;27.80;6.35;;;;;;;4.96;100.00;102028.00;5221028;28;20035;-70
2021/12/12 03:40:14;;;;;;;29.35;6.97;;;;;;;4.95;100.00;102024.50;5221341;28;20555;-70
2021/12/12 03:42:47;;;;;;;22.75;7.03;;;;;;;4.96;100.00;102018.22;5221346;28;20513;-70
2021/12/12 03:45:19;;;;;;;25.15;6.70;;;;;;;4.95;100.00;102019.19;5220817;28;20013;-70
2021/12/12 03:47:57;;;;;;;24.42;7.28;;;;;;;4.99;100.00;102010.06;5220629;28;20028;-69
2021/12/12 03:50:32;;;;;;;26.30;7.00;;;;;;;5.01;100.00;102012.59;5224159;28;20001;-70
2021/12/12 03:53:03;;;;;;;28.02;9.32;;;;;;;5.02;100.00;102008.97;5225241;28;20512;-70
2021/12/12 03:55:35;;;;;;;20.10;7.50;;;;;;;5.02;100.00;102012.53;5224494;28;20107;-70
2021/12/12 03:58:06;;;;;;;28.20;7.55;;;;;;;5.03;100.00;102010.72;5224805;28;20027;-70
2021/12/12 04:00:43;;;;;;;27.85;8.07;;;;;;;5.06;100.00;102007.81;5224782;28;20048;-70
2021/12/12 04:03:15;;;;;;;21.15;7.25;;;;;;;5.06;100.00;101998.03;5224850;28;20021;-70
2021/12/12 04:05:51;;;;;;;29.52;8.50;;;;;;;5.06;100.00;102003.34;5224617;28;20108;-70
2021/12/12 04:08:30;;;;;;;30.23;8.50;;;;;;;5.06;100.00;101997.19;5224818;28;20090;-70
2021/12/12 04:11:03;;;;;;;29.60;8.90;;;;;;;5.09;100.00;101997.00;5224519;28;20025;-70
2021/12/12 04:13:41;;;;;;;28.85;8.68;;;;;;;5.12;100.00;101996.78;5224421;28;20028;-70
2021/12/12 04:16:12;;;;;;;24.33;7.43;;;;;;;5.15;100.00;101999.25;5224651;28;20036;-70
2021/12/12 04:18:43;;;;;;;24.48;7.80;;;;;;;5.27;100.00;101994.88;5224095;28;20029;-70
2021/12/12 04:21:17;;;;;;;20.77;8.27;;;;;;;5.27;100.00;101994.88;5223911;28;20021;-69
2021/12/12 04:23:49;;;;;;;28.88;8.80;;;;;;;5.29;100.00;101996.50;5224746;28;20268;-70
2021/12/12 04:26:25;;;;;;;15.95;7.55;;;;;;;5.31;100.00;101994.56;5223939;28;20104;-70
2021/12/12 04:29:11;;;;;;;25.58;7.82;;;;;;;5.32;100.00;102004.28;5224225;28;20033;-69
2021/12/12 04:31:51;;;;;;;23.77;7.97;;;;;;;5.29;100.00;102001.81;5223948;28;20116;-69
2021/12/12 04:34:24;;;;;;;29.63;9.02;;;;;;;5.33;100.00;102006.00;5224139;28;20021;-70
2021/12/12 04:36:56;;;;;;;20.38;7.80;;;;;;;5.35;100.00;102009.38;5224557;28;20017;-69
2021/12/12 04:39:31;;;;;;;21.70;8.07;;;;;;;5.40;100.00;102014.41;5224046;28;20397;-70
2021/12/12 04:42:09;;;;;;;35.42;8.88;;;;;;;5.38;100.00;102018.97;5224015;28;20024;-70
2021/12/12 04:44:42;;;;;;;23.70;7.53;;;;;;;5.39;100.00;102002.91;5223871;28;20021;-70
2021/12/12 04:50:26;;;;;;;22.52;7.60;;;;;;;5.42;100.00;102013.34;5212016;28;20032;-69
2021/12/12 04:53:02;;;;;;;24.25;8.40;;;;;;;5.45;100.00;102014.94;5223843;28;20033;-70
2021/12/12 04:55:41;;;;;;;28.63;8.48;;;;;;;5.49;100.00;102016.44;5223485;28;20056;-70
2021/12/12 04:58:23;;;;;;;19.15;7.35;;;;;;;5.55;100.00;102023.16;5223955;28;20025;-69
2021/12/12 05:00:59;;;;;;;15.90;7.00;;;;;;;5.56;100.00;102023.03;5222648;28;20064;-70
2021/12/12 05:03:46;;;;;;;13.80;7.57;;;;;;;5.59;100.00;102028.16;5223618;28;20029;-70
2021/12/12 05:06:26;;;;;;;20.17;8.55;;;;;;;5.60;100.00;102029.84;5223465;28;20178;-70
2021/12/12 05:09:05;;;;;;;23.38;8.43;;;;;;;5.67;100.00;102024.94;5223404;28;20052;-70
2021/12/12 05:11:59;;;;;;;17.83;7.82;;;;;;;5.69;100.00;102020.41;5223622;28;20049;-70
2021/12/12 05:14:39;;;;;;;17.17;7.75;;;;;;;5.74;100.00;102026.25;5219880;28;20392;-70
2021/12/12 05:17:17;;;;;;;16.58;7.60;;;;;;;5.78;100.00;102019.75;5222920;28;20032;-69
2021/12/12 05:19:53;;;;;;;17.15;7.70;;;;;;;5.79;100.00;102023.28;5223192;28;20024;-69
2021/12/12 05:22:34;;;;;;;14.57;7.47;;;;;;;5.79;100.00;102018.78;5210856;28;20404;-70
2021/12/12 05:25:11;;;;;;;18.02;8.52;;;;;;;5.81;100.00;102014.19;5222855;28;20013;-70
2021/12/12 05:27:43;;;;;;;11.55;7.60;;;;;;;5.84;100.00;102018.47;5223321;28;20111;-69
2021/12/12 05:30:20;;;;;;;13.10;6.88;;;;;;;5.85;100.00;102023.69;5223020;28;20025;-70
2021/12/12 05:32:52;;;;;;;15.50;7.18;;;;;;;5.87;100.00;102015.59;5223183;28;20111;-70
2021/12/12 05:35:26;;;;;;;15.55;8.30;;;;;;;5.90;100.00;102023.38;5221683;28;20024;-70
2021/12/12 05:37:59;;;;;;;21.15;7.43;;;;;;;5.90;100.00;102028.69;5222899;28;20030;-70
2021/12/12 05:40:33;;;;;;;15.90;6.43;;;;;;;5.92;100.00;102033.00;5222834;28;20447;-70
2021/12/12 05:43:05;;;;;;;17.95;9.57;;;;;;;5.91;100.00;102030.41;5222935;28;20490;-69
2021/12/12 05:45:37;;;;;;;11.98;7.03;;;;;;;5.95;100.00;102032.78;5222319;28;20372;-70
2021/12/12 05:48:09;;;;;;;16.75;7.53;;;;;;;5.94;100.00;102039.06;5222628;28;20420;-70
2021/12/12 05:50:40;;;;;;;18.58;7.35;;;;;;;5.97;100.00;102041.53;5222311;28;20029;-69
2021/12/12 05:53:13;;;;;;;14.07;8.93;;;;;;;6.01;100.00;102039.47;5222980;28;20021;-70
2021/12/12 05:55:46;;;;;;;13.38;7.10;;;;;;;6.01;100.00;102043.97;5222218;28;20448;-69
2021/12/12 05:58:19;;;;;;;13.95;6.75;;;;;;;6.02;100.00;102035.00;5222579;28;20025;-70
2021/12/12 06:00:58;;;;;;;12.52;6.65;;;;;;;6.05;100.00;102040.13;5222170;28;20390;-70
2021/12/12 06:03:33;;;;;;;13.48;7.15;;;;;;;6.07;100.00;102047.03;5222809;28;20509;-70
2021/12/12 06:06:07;;;;;;;;;;;;;;;6.06;100.00;102044.50;5222468;28;20055;-70
2021/12/12 06:08:40;;;;;;;11.32;6.47;;;;;;;6.08;100.00;102045.25;5222317;28;19916;-70
2021/12/12 06:11:12;;;;;;;13.88;6.57;;;;;;;6.06;100.00;102058.66;5222262;28;20025;-70
2021/12/12 06:13:44;;;;;;;14.10;7.53;;;;;;;6.09;100.00;102052.28;5220891;28;20127;-69
2021/12/12 06:16:19;;;;;;;17.10;6.88;;;;;;;6.11;100.00;102050.34;5221664;28;20021;-70
2021/12/12 06:18:55;;;;;;;11.10;7.05;;;;;;;6.11;100.00;102050.34;5222093;28;20025;-70
2021/12/12 06:21:27;;;;;;;11.15;6.30;;;;;;;6.13;100.00;102051.09;5222487;28;20033;-69
2021/12/12 06:23:59;;;;;;;12.65;6.53;;;;;;;6.14;100.00;102060.81;5208985;28;20020;-70
2021/12/12 06:26:29;;;;;;;12.50;5.88;;;;;;;6.15;100.00;102054.50;5222269;28;20297;-70
2021/12/12 06:29:00;;;;;;;12.73;6.95;;;;;;;6.15;100.00;102051.84;5222147;28;20116;-70
2021/12/12 06:31:31;;;;;;;10.50;6.28;;;;;;;6.16;100.00;102056.19;5222164;28;20028;-70
2021/12/12 06:34:02;;;;;;;13.60;7.63;;;;;;;6.20;100.00;102063.88;5221889;28;20397;-70
2021/12/12 06:36:33;;;;;;;11.63;6.60;;;;;;;6.21;100.00;102067.38;5221374;28;20029;-70
2021/12/12 06:39:07;;;;;;;15.23;7.03;;;;;;;6.23;100.00;102070.81;5222050;28;20477;-70
2021/12/12 06:41:38;;;;;;;12.63;6.80;;;;;;;6.26;100.00;102061.72;5221844;28;20078;-70
2021/12/12 06:44:10;;;;;;;14.45;7.35;;;;;;;6.25;100.00;102068.03;5221714;28;20388;-70
2021/12/12 06:46:42;;;;;;;12.25;7.00;;;;;;;6.27;100.00;102074.94;5214487;28;20033;-70
2021/12/12 06:49:16;;;;;;;16.05;7.25;;;;;;;6.30;100.00;102072.06;5207170;28;20070;-71
2021/12/12 06:51:52;;;;;;;13.07;6.72;;;;;;;6.31;100.00;102073.78;5219480;28;20028;-71
2021/12/12 06:54:27;;;;;;;16.92;7.47;;;;;;;6.35;100.00;102077.06;5219378;28;20180;-70
2021/12/12 06:57:01;;;;;;;17.05;9.43;;;;;;;6.37;100.00;102083.13;5219815;28;20104;-70
2021/12/12 06:59:34;;;;;;;18.70;7.88;;;;;;;6.38;100.00;102085.72;5219271;28;20357;-70
2021/12/12 07:02:08;;;;;;;18.17;7.93;;;;;;;6.37;100.00;102086.66;5219609;28;20048;-71
2021/12/12 07:04:40;;;;;;;20.83;8.80;;;;;;;6.39;100.00;102090.09;5219667;28;20021;-69
2021/12/12 07:07:14;;;;;;;23.55;8.32;;;;;;;6.38;100.00;102091.06;5219769;28;20029;-70
2021/12/12 07:09:48;;;;;;;24.27;9.50;;;;;;;6.41;100.00;102089.97;5219278;28;20724;-70
2021/12/12 07:12:22;;;;;;;22.48;9.48;;;;;;;6.43;100.00;102099.56;5219580;28;20032;-70
2021/12/12 07:14:54;;;;;;;22.50;9.13;;;;;;;6.43;100.00;102090.72;5219739;28;20017;-70
2021/12/12 07:17:25;;;;;;;20.90;9.32;;;;;;;6.46;100.00;102095.81;5226770;28;20024;-70
2021/12/12 07:19:56;;;;;;;21.40;9.52;;;;;;;6.47;100.00;102086.84;5219828;28;20024;-70
2021/12/12 07:22:27;;;;;;;22.35;11.50;;;;;;;6.49;100.00;102091.13;5217795;28;20032;-70
2021/12/12 07:25:00;;;;;;;21.95;10.23;;;;;;;6.53;100.00;102090.94;5221339;28;20074;-70
2021/12/12 07:27:31;;;;;;;23.52;9.75;;;;;;;6.58;100.00;102094.13;5226579;28;20400;-72
2021/12/12 07:30:05;;;;;;;21.08;10.13;;;;;;;6.56;100.00;102090.69;5224389;28;20029;-70
2021/12/12 07:32:38;;;;;;;22.88;10.90;;;;;;;6.58;100.00;102092.28;5225662;28;20024;-69
2021/12/12 07:35:11;;;;;;;32.85;11.25;;;;;;;6.60;100.00;102087.69;5225281;28;20116;-71
2021/12/12 07:37:43;;;;;;;29.13;12.85;;;;;;;6.61;100.00;102094.72;5226069;28;20028;-70
2021/12/12 07:40:13;;;;;;;34.95;12.57;;;;;;;6.61;100.00;102085.88;5216064;28;20506;-70
2021/12/12 07:42:46;;;;;;;36.38;11.65;;;;;;;6.65;100.00;102090.03;5218931;28;20023;-71
2021/12/12 07:45:20;;;;;;;26.75;11.15;;;;;;;6.66;100.00;102089.06;5220174;28;20032;-71
2021/12/12 07:47:53;;;;;;;33.17;12.23;;;;;;;6.69;100.00;102099.53;5211391;28;20031;-71
2021/12/12 07:50:26;;;;;;;30.88;11.68;;;;;;;6.70;100.00;102101.22;5220640;28;20025;-71
2021/12/12 07:52:57;;;;;;;39.00;12.32;;;;;;;6.69;100.00;102099.53;5219501;28;20025;-72
2021/12/12 07:55:27;;;;;;;34.80;13.73;;;;;;;6.71;100.00;102106.44;5212944;28;20036;-71
2021/12/12 07:57:58;;;;;;;34.92;13.57;;;;;;;6.74;100.00;102108.03;5219290;28;20021;-70
2021/12/12 08:00:30;;;;;;;40.55;12.10;;;;;;;6.78;100.00;102111.31;5211316;28;20025;-71
2021/12/12 08:03:03;;;;;;;35.80;12.02;;;;;;;6.80;100.00;102115.59;5216943;28;20135;-71
2021/12/12 08:05:35;;;;;;;31.65;11.18;;;;;;;6.81;100.00;102119.09;5220553;28;20029;-71
2021/12/12 08:08:09;;;;;;;32.17;12.00;;;;;;;6.81;100.00;102124.44;5209155;28;20030;-70
2021/12/12 08:10:42;;;;;;;33.72;12.48;;;;;;;6.82;100.00;102126.13;5219260;28;20023;-71
2021/12/12 08:13:14;;;;;;;30.73;13.07;;;;;;;6.83;100.00;102123.38;5215633;28;20029;-71
2021/12/12 08:15:46;;;;;;;26.38;10.68;;;;;;;6.85;100.00;102129.44;5215410;28;20321;-71
2021/12/12 08:18:18;;;;;;;35.40;12.60;;;;;;;6.85;100.00;102132.13;5205595;28;20018;-71
2021/12/12 08:20:51;;;;;;;31.25;12.23;;;;;;;6.87;100.00;102135.50;5211869;28;20085;-71
2021/12/12 08:23:24;;;;;;;30.73;11.32;;;;;;;6.92;100.00;102135.19;5218899;28;20025;-71
2021/12/12 08:25:57;;;;;;;37.70;12.15;;;;;;;6.90;100.00;102143.31;5216953;28;20029;-71
2021/12/12 08:28:29;;;;;;;37.28;11.40;;;;;;;6.92;100.00;102141.38;5219783;28;20017;-71
2021/12/12 08:31:00;;;;;;;32.05;11.48;;;;;;;6.96;100.00;102137.53;5219152;28;20021;-71
2021/12/12 08:33:31;;;;;;;35.08;12.05;;;;;;;6.98;100.00;102142.78;5207537;28;20370;-72
2021/12/12 08:36:03;;;;;;;31.65;12.07;;;;;;;6.97;100.00;102147.22;5209487;28;20062;-72
2021/12/12 08:38:35;;;;;;;27.83;12.25;;;;;;;6.99;100.00;102145.31;5204549;28;20021;-71
2021/12/12 08:41:06;;;;;;;30.90;13.23;;;;;;;7.03;100.00;102145.94;5215715;28;20522;-73
2021/12/12 08:43:37;;;;;;;27.23;12.30;;;;;;;7.03;100.00;102151.28;5215671;28;20016;-71
2021/12/12 08:46:11;;;;;;;37.47;14.20;;;;;;;7.04;100.00;102158.31;5203992;28;20110;-72
2021/12/12 08:48:48;;;;;;;44.77;13.07;;;;;;;7.08;100.00;102156.25;5210445;28;20030;-71
2021/12/12 08:51:29;;;;;;;31.63;13.02;;;;;;;7.09;100.00;102158.00;5214999;28;20704;-72
2021/12/12 08:54:13;;;;;;;40.30;13.18;;;;;;;7.11;100.00;102154.22;5217171;28;20079;-76
2021/12/12 08:56:48;;;;;;;30.73;14.35;;;;;;;7.11;100.00;102162.25;5213628;28;20037;-72
2021/12/12 08:59:20;;;;;;;;;;;;;;;7.10;100.00;102157.88;5214419;28;20021;-71
2021/12/12 09:01:55;;;;;;;40.00;13.95;;;;;;;7.11;100.00;102167.56;5204368;28;20450;-72
2021/12/12 09:04:30;;;;;;;40.58;13.73;;;;;;;7.15;100.00;102173.56;5202404;28;20171;-71
2021/12/12 09:07:19;;;;;;;35.50;13.13;;;;;;;7.16;100.00;102173.44;5212211;28;20043;-71
2021/12/12 09:09:59;;;;;;;30.90;14.88;;;;;;;7.15;100.00;102177.06;5212778;28;20022;-70
2021/12/12 09:12:35;;;;;;;39.95;13.52;;;;;;;7.18;100.00;102179.53;5212468;28;20109;-72
2021/12/12 09:15:19;;;;;;;32.88;13.45;;;;;;;7.20;100.00;102176.75;5209360;28;20173;-71
2021/12/12 09:17:55;;;;;;;38.08;13.57;;;;;;;7.20;100.00;102179.41;5210862;28;20021;-72
2021/12/12 09:20:35;;;;;;;35.10;13.57;;;;;;;7.19;100.00;102180.38;5211623;28;20053;-70
2021/12/12 09:23:11;;;;;;;38.58;13.82;;;;;;;7.21;100.00;102186.44;5207933;28;20037;-71
2021/12/12 09:25:50;;;;;;;39.97;14.48;;;;;;;7.26;100.00;102186.97;5207256;28;20025;-71
2021/12/12 09:28:39;;;;;;;40.47;14.68;;;;;;;7.27;100.00;102191.31;5211557;28;20033;-71
2021/12/12 09:31:14;;;;;;;58.25;27.77;;;;;;;7.34;100.00;102197.09;5207354;28;20053;-72
2021/12/12 09:33:55;;;;;;;42.63;14.52;;;;;;;7.33;100.00;102190.91;5213131;28;20025;-71
2021/12/12 09:36:37;;;;;;;39.33;15.48;;;;;;;7.35;100.00;102194.31;5209686;28;20100;-71
2021/12/12 09:39:19;;;;;;;38.25;14.00;;;;;;;7.38;100.00;102191.41;5206269;28;20017;-70
2021/12/12 09:42:18;;;;;;;39.33;14.43;;;;;;;7.43;100.00;102197.28;5211770;28;20101;-71
2021/12/12 09:45:10;;;;;;;39.95;14.98;;;;;;;7.47;100.00;102195.22;5215224;28;20024;-71
2021/12/12 09:51:33;;;;;;;41.38;14.32;;;;;;;7.57;100.00;102190.03;5213094;28;20020;-72
2021/12/12 09:54:26;;;;;;;38.47;12.85;;;;;;;7.65;100.00;102196.53;5214349;28;20021;-71
2021/12/12 09:57:05;;;;;;;38.70;15.15;;;;;;;7.68;100.00;102198.09;5213628;28;20201;-71
2021/12/12 09:59:46;;;;;;;31.67;13.50;;;;;;;7.73;100.00;102195.94;5215591;28;20020;-71
2021/12/12 10:02:26;;;;;;;32.90;13.32;;;;;;;7.79;100.00;102201.69;5208855;28;20646;-72
2021/12/12 10:05:13;;;;;;;33.20;14.43;;;;;;;7.78;100.00;102201.78;5204163;28;20025;-71
2021/12/12 10:08:23;;;;;;;31.48;13.93;;;;;;;7.83;100.00;102205.00;5208049;28;20056;-72
2021/12/12 10:11:01;;;;;;;31.73;11.88;;;;;;;7.83;100.00;102199.66;5216902;28;20396;-70
2021/12/12 10:13:43;;;;;;;28.88;12.85;;;;;;;7.89;100.00;102204.53;5190201;28;20032;-70
2021/12/12 10:16:28;;;;;;;29.63;12.68;;;;;;;7.92;100.00;102192.72;5209780;28;20087;-71
2021/12/12 10:19:14;;;;;;;31.80;12.88;;;;;;;7.94;100.00;102197.00;5204558;28;20021;-71
2021/12/12 10:21:59;;;;;;;41.20;13.98;;;;;;;8.00;100.00;102193.00;5209599;28;20112;-71
2021/12/12 10:24:47;;;;;;;32.08;12.95;;;;;;;7.99;100.00;102200.19;5201303;28;20509;-71
2021/12/12 10:27:23;;;;;;;33.50;13.25;;;;;;;7.98;100.00;102194.94;5212243;28;20029;-71
2021/12/12 10:30:02;;;;;;;31.63;15.63;;;;;;;8.03;100.00;102200.78;5209629;28;20033;-71
2021/12/12 10:32:44;;;;;;;35.40;13.48;;;;;;;8.00;100.00;102201.88;5216189;28;20035;-71
2021/12/12 10:35:21;;;;;;;32.15;13.05;;;;;;;8.03;100.00;102204.34;5213798;28;20013;-71
2021/12/12 10:37:58;;;;;;;30.58;12.80;;;;;;;8.04;100.00;102202.50;5210862;28;20035;-71
2021/12/12 10:40:38;;;;;;;44.97;13.35;;;;;;;8.04;100.00;102200.69;5215168;28;20040;-71
2021/12/12 10:43:12;;;;;;;30.35;13.25;;;;;;;8.10;100.00;102195.84;5216071;28;20803;-71
2021/12/12 10:45:49;;;;;;;34.60;13.38;;;;;;;8.12;100.00;102201.91;5210335;28;20068;-71
2021/12/12 10:48:27;;;;;;;28.50;12.65;;;;;;;8.13;100.00;102200.94;5202157;28;20031;-70
2021/12/12 10:51:11;;;;;;;34.83;13.02;;;;;;;8.16;100.00;102208.72;5209307;28;20025;-71
2021/12/12 10:53:49;;;;;;;36.10;13.48;;;;;;;8.17;100.00;102205.09;5204020;28;20037;-71
2021/12/12 10:56:37;;;;;;;28.08;13.15;;;;;;;8.20;100.00;102215.56;5203567;28;20032;-70
2021/12/12 10:59:19;;;;;;;33.28;13.82;;;;;;;8.26;100.00;102212.41;5210357;28;20492;-71
2021/12/12 11:01:59;;;;;;;32.47;13.98;;;;;;;8.25;100.00;102206.22;5206633;28;20141;-71
2021/12/12 11:04:38;;;;;;;30.40;12.35;;;;;;;8.22;100.00;102210.94;5204993;28;20013;-71
2021/12/12 11:07:22;;;;;;;33.00;14.10;;;;;;;8.25;100.00;102206.22;5213414;28;20025;-71
2021/12/12 11:10:05;;;;;;;27.67;13.38;;;;;;;8.23;100.00;102205.47;5210826;28;20616;-71
2021/12/12 11:12:39;;;;;;;28.42;13.63;;;;;;;8.24;100.00;102209.00;5211792;28;20401;-71
2021/12/12 11:15:15;;;;;;;33.67;12.50;;;;;;;8.26;100.00;102204.38;5205411;28;20027;-71
2021/12/12 11:17:58;;;;;;;34.97;13.27;;;;;;;8.29;100.00;102199.66;5202759;28;20079;-71
2021/12/12 11:20:38;;;;;;;39.78;14.77;;;;;;;8.24;100.00;102204.50;5204200;28;20034;-71
2021/12/12 11:23:15;;;;;;;33.88;13.43;;;;;;;8.24;100.00;102195.63;5209986;28;20035;-71
2021/12/12 11:25:54;;;;;;;34.30;13.95;;;;;;;8.27;100.00;102192.72;5197789;28;20075;-70
2021/12/12 11:28:33;;;;;;;33.53;14.07;;;;;;;8.28;100.00;102197.09;5195694;28;20073;-71
2021/12/12 11:31:13;;;;;;;34.42;13.77;;;;;;;8.22;100.00;102209.09;5207928;28;20025;-71
2021/12/12 11:33:49;;;;;;;34.53;14.80;;;;;;;8.22;100.00;102200.22;5203986;28;20303;-71
2021/12/12 11:36:26;;;;;;;33.72;14.15;;;;;;;8.19;100.00;102208.50;5201457;28;20032;-71
2021/12/12 11:39:15;;;;;;;36.33;15.82;;;;;;;8.25;100.00;102208.03;5200786;28;20032;-72
2021/12/12 11:41:54;;;;;;;32.65;13.98;;;;;;;8.30;100.00;102211.19;5212635;28;20013;-71
2021/12/12 11:44:34;;;;;;;46.58;15.35;;;;;;;8.25;100.00;102206.22;5204465;28;20507;-71
2021/12/12 11:47:35;;;;;;;43.67;15.27;;;;;;;8.34;100.00;102215.34;5212019;28;20018;-71
2021/12/12 11:50:14;;;;;;;53.80;27.23;;;;;;;8.40;100.00;102214.06;5211127;28;20429;-71
2021/12/12 11:52:54;;;;;;;31.63;15.45;;;;;;;8.35;100.00;102214.38;5209804;28;20029;-71
2021/12/12 11:55:32;;;;;;;34.95;15.30;;;;;;;8.39;100.00;102202.50;5210175;28;20409;-71
2021/12/12 11:58:19;;;;;;;35.38;16.27;;;;;;;8.39;100.00;102215.88;5207715;28;20021;-71
2021/12/12 12:00:59;;;;;;;40.80;15.77;;;;;;;8.38;100.00;102216.81;5208547;28;20087;-71
2021/12/12 12:03:48;;;;;;;39.65;16.38;;;;;;;8.37;100.00;102214.28;5206971;28;20452;-71
2021/12/12 12:06:32;;;;;;;40.08;16.17;;;;;;;8.38;100.00;102219.50;5213246;28;20473;-71
2021/12/12 12:09:33;;;;;;;35.55;15.20;;;;;;;8.41;100.00;102231.78;5206596;28;20017;-70
2021/12/12 12:12:14;;;;;;;31.40;14.25;;;;;;;8.40;100.00;102235.44;5205466;28;20033;-71
2021/12/12 12:15:06;;;;;;;32.20;14.15;;;;;;;8.39;100.00;102231.94;5212671;28;20017;-70